sensor_id;sensor_type;location;lat;lon;timestamp;pressure;altitude;pressure_sealevel;temperature;humidity
78675;BME280;67990;59.826;30.108;2023-03-21T00:02:11;100408.06;;;6.37;71.43
78675;BME280;67990;59.826;30.108;2023-03-21T00:04:38;100410.78;;;6.46;71.12
78675;BME280;67990;59.826;30.108;2023-03-21T00:07:05;100397.53;;;6.49;71.53
78675;BME280;67990;59.826;30.108;2023-03-21T00:09:32;100390.28;;;6.53;71.27
78675;BME280;67990;59.826;30.108;2023-03-21T00:12:01;100381.25;;;6.57;71.35
78675;BME280;67990;59.826;30.108;2023-03-21T00:14:32;100381.63;;;6.52;71.55
78675;BME280;67990;59.826;30.108;2023-03-21T00:16:59;100375.69;;;6.39;72.39
78675;BME280;67990;59.826;30.108;2023-03-21T00:19:26;100373.09;;;6.39;72.64
78675;BME280;67990;59.826;30.108;2023-03-21T00:21:53;100380.88;;;6.28;72.00
78675;BME280;67990;59.826;30.108;2023-03-21T00:24:21;100370.44;;;6.28;72.64
78675;BME280;67990;59.826;30.108;2023-03-21T00:26:49;100378.19;;;6.41;72.75
78675;BME280;67990;59.826;30.108;2023-03-21T00:29:17;100375.13;;;6.58;72.20
78675;BME280;67990;59.826;30.108;2023-03-21T00:31:45;100375.47;;;6.53;72.76
78675;BME280;67990;59.826;30.108;2023-03-21T00:34:12;100372.00;;;6.53;72.77
78675;BME280;67990;59.826;30.108;2023-03-21T00:36:40;100376.97;;;6.45;72.52
78675;BME280;67990;59.826;30.108;2023-03-21T00:39:07;100376.75;;;6.37;72.50
78675;BME280;67990;59.826;30.108;2023-03-21T00:41:34;100374.81;;;6.28;73.08
78675;BME280;67990;59.826;30.108;2023-03-21T00:44:01;100357.50;;;6.16;73.02
78675;BME280;67990;59.826;30.108;2023-03-21T00:46:30;100368.69;;;6.29;73.32
78675;BME280;67990;59.826;30.108;2023-03-21T00:48:58;100353.72;;;6.20;73.26
78675;BME280;67990;59.826;30.108;2023-03-21T00:51:25;100353.25;;;6.26;72.75
78675;BME280;67990;59.826;30.108;2023-03-21T00:53:53;100356.19;;;6.10;74.40
78675;BME280;67990;59.826;30.108;2023-03-21T00:56:21;100359.09;;;5.94;75.68
78675;BME280;67990;59.826;30.108;2023-03-21T00:58:48;100356.97;;;5.88;76.02
78675;BME280;67990;59.826;30.108;2023-03-21T01:01:16;100358.44;;;6.04;75.14
78675;BME280;67990;59.826;30.108;2023-03-21T01:03:45;100358.81;;;6.10;74.49
78675;BME280;67990;59.826;30.108;2023-03-21T01:06:17;100346.22;;;6.04;74.49
78675;BME280;67990;59.826;30.108;2023-03-21T01:08:46;100362.59;;;6.06;74.73
78675;BME280;67990;59.826;30.108;2023-03-21T01:11:15;100367.69;;;6.08;74.62
78675;BME280;67990;59.826;30.108;2023-03-21T01:13:44;100364.34;;;6.06;74.37
78675;BME280;67990;59.826;30.108;2023-03-21T01:16:12;100367.44;;;6.11;74.04
78675;BME280;67990;59.826;30.108;2023-03-21T01:18:40;100371.69;;;6.12;73.92
78675;BME280;67990;59.826;30.108;2023-03-21T01:21:11;100365.75;;;5.98;73.64
78675;BME280;67990;59.826;30.108;2023-03-21T01:23:40;100369.47;;;6.07;73.69
78675;BME280;67990;59.826;30.108;2023-03-21T01:26:08;100376.75;;;5.91;73.22
78675;BME280;67990;59.826;30.108;2023-03-21T01:28:37;100379.84;;;5.85;73.51
78675;BME280;67990;59.826;30.108;2023-03-21T01:31:05;100380.75;;;5.84;73.75
78675;BME280;67990;59.826;30.108;2023-03-21T01:33:33;100376.59;;;5.81;73.29
78675;BME280;67990;59.826;30.108;2023-03-21T01:36:00;100379.53;;;5.77;73.27
78675;BME280;67990;59.826;30.108;2023-03-21T01:38:30;100375.59;;;5.71;73.42
78675;BME280;67990;59.826;30.108;2023-03-21T01:40:59;100376.66;;;5.69;72.93
78675;BME280;67990;59.826;30.108;2023-03-21T01:43:34;100383.84;;;5.65;72.74
78675;BME280;67990;59.826;30.108;2023-03-21T01:46:35;100388.56;;;5.60;72.95
78675;BME280;67990;59.826;30.108;2023-03-21T01:49:20;100360.09;;;5.46;72.86
78675;BME280;67990;59.826;30.108;2023-03-21T01:52:01;100379.50;;;5.53;73.02
78675;BME280;67990;59.826;30.108;2023-03-21T01:54:33;100384.69;;;5.42;72.69
78675;BME280;67990;59.826;30.108;2023-03-21T01:57:07;100383.03;;;5.41;72.80
78675;BME280;67990;59.826;30.108;2023-03-21T01:59:38;100384.06;;;5.39;72.69
78675;BME280;67990;59.826;30.108;2023-03-21T02:02:30;100380.84;;;5.35;72.89
78675;BME280;67990;59.826;30.108;2023-03-21T02:05:10;100387.00;;;5.34;72.64
78675;BME280;67990;59.826;30.108;2023-03-21T02:07:39;100377.41;;;5.35;72.60
78675;BME280;67990;59.826;30.108;2023-03-21T02:10:12;100376.91;;;5.30;72.51
78675;BME280;67990;59.826;30.108;2023-03-21T02:12:45;100387.00;;;5.34;72.42
78675;BME280;67990;59.826;30.108;2023-03-21T02:15:13;100385.88;;;5.26;72.48
78675;BME280;67990;59.826;30.108;2023-03-21T02:18:02;100380.28;;;5.19;72.78
78675;BME280;67990;59.826;30.108;2023-03-21T02:21:07;100375.28;;;5.16;73.12
78675;BME280;67990;59.826;30.108;2023-03-21T02:24:15;100379.19;;;5.11;72.78
78675;BME280;67990;59.826;30.108;2023-03-21T02:26:59;100374.06;;;5.09;72.62
78675;BME280;67990;59.826;30.108;2023-03-21T02:33:02;100384.19;;;5.01;73.24
78675;BME280;67990;59.826;30.108;2023-03-21T02:35:46;100384.31;;;4.87;74.02
78675;BME280;67990;59.826;30.108;2023-03-21T02:38:25;100381.84;;;4.73;74.15
78675;BME280;67990;59.826;30.108;2023-03-21T02:41:02;100395.81;;;4.47;74.75
78675;BME280;67990;59.826;30.108;2023-03-21T02:43:37;100386.31;;;4.21;75.62
78675;BME280;67990;59.826;30.108;2023-03-21T02:46:13;100368.31;;;4.06;75.12
78675;BME280;67990;59.826;30.108;2023-03-21T02:48:46;100397.28;;;4.26;74.60
78675;BME280;67990;59.826;30.108;2023-03-21T02:51:19;100402.66;;;4.23;74.44
78675;BME280;67990;59.826;30.108;2023-03-21T02:54:03;100407.25;;;4.32;73.88
78675;BME280;67990;59.826;30.108;2023-03-21T02:56:35;100405.13;;;4.12;73.42
78675;BME280;67990;59.826;30.108;2023-03-21T02:59:04;100389.00;;;4.07;73.67
78675;BME280;67990;59.826;30.108;2023-03-21T03:01:32;100405.50;;;3.94;74.08
78675;BME280;67990;59.826;30.108;2023-03-21T03:04:00;100408.81;;;3.83;73.91
78675;BME280;67990;59.826;30.108;2023-03-21T03:06:38;100415.56;;;3.73;74.54
78675;BME280;67990;59.826;30.108;2023-03-21T03:09:24;100417.41;;;3.71;74.66
78675;BME280;67990;59.826;30.108;2023-03-21T03:12:03;100368.72;;;3.48;74.57
78675;BME280;67990;59.826;30.108;2023-03-21T03:14:42;100415.38;;;3.50;74.24
78675;BME280;67990;59.826;30.108;2023-03-21T03:17:19;100417.75;;;3.12;76.35
78675;BME280;67990;59.826;30.108;2023-03-21T03:20:06;100425.31;;;3.29;75.29
78675;BME280;67990;59.826;30.108;2023-03-21T03:22:39;100423.84;;;3.25;75.88
78675;BME280;67990;59.826;30.108;2023-03-21T03:25:13;100420.38;;;2.84;76.65
78675;BME280;67990;59.826;30.108;2023-03-21T03:27:43;100426.84;;;3.05;76.81
78675;BME280;67990;59.826;30.108;2023-03-21T03:30:13;100429.47;;;2.77;77.25
78675;BME280;67990;59.826;30.108;2023-03-21T03:32:46;100435.19;;;3.10;76.60
78675;BME280;67990;59.826;30.108;2023-03-21T03:35:17;100444.66;;;3.11;75.95
78675;BME280;67990;59.826;30.108;2023-03-21T03:37:47;100446.00;;;3.31;75.53
78675;BME280;67990;59.826;30.108;2023-03-21T03:40:19;100447.28;;;3.38;75.13
78675;BME280;67990;59.826;30.108;2023-03-21T03:43:02;100455.94;;;3.24;75.24
78675;BME280;67990;59.826;30.108;2023-03-21T03:45:38;100456.00;;;3.37;74.83
78675;BME280;67990;59.826;30.108;2023-03-21T03:48:14;100459.72;;;3.33;74.79
78675;BME280;67990;59.826;30.108;2023-03-21T03:50:48;100441.16;;;2.98;75.59
78675;BME280;67990;59.826;30.108;2023-03-21T03:53:24;100466.50;;;3.35;75.38
78675;BME280;67990;59.826;30.108;2023-03-21T03:55:56;100460.81;;;3.43;74.25
78675;BME280;67990;59.826;30.108;2023-03-21T03:58:25;100454.59;;;3.45;74.28
78675;BME280;67990;59.826;30.108;2023-03-21T04:00:54;100436.03;;;2.97;74.78
78675;BME280;67990;59.826;30.108;2023-03-21T04:03:22;100471.22;;;3.29;74.84
78675;BME280;67990;59.826;30.108;2023-03-21T04:05:50;100477.91;;;3.33;75.08
78675;BME280;67990;59.826;30.108;2023-03-21T04:08:17;100472.22;;;3.40;74.03
78675;BME280;67990;59.826;30.108;2023-03-21T04:10:51;100486.00;;;3.14;74.39
78675;BME280;67990;59.826;30.108;2023-03-21T04:13:20;100490.16;;;3.17;75.19
78675;BME280;67990;59.826;30.108;2023-03-21T04:15:58;100490.41;;;3.26;74.94
78675;BME280;67990;59.826;30.108;2023-03-21T04:18:26;100498.00;;;3.43;74.28
78675;BME280;67990;59.826;30.108;2023-03-21T04:20:53;100499.66;;;3.30;74.66
78675;BME280;67990;59.826;30.108;2023-03-21T04:23:21;100514.22;;;3.47;74.47
78675;BME280;67990;59.826;30.108;2023-03-21T04:25:48;100506.59;;;3.58;74.18
78675;BME280;67990;59.826;30.108;2023-03-21T04:28:16;100502.63;;;3.52;73.70
78675;BME280;67990;59.826;30.108;2023-03-21T04:30:52;100508.00;;;3.49;73.95
78675;BME280;67990;59.826;30.108;2023-03-21T04:33:23;100499.53;;;3.60;74.03
78675;BME280;67990;59.826;30.108;2023-03-21T04:35:54;100503.69;;;3.62;73.92
78675;BME280;67990;59.826;30.108;2023-03-21T04:38:26;100520.94;;;3.63;73.65
78675;BME280;67990;59.826;30.108;2023-03-21T04:40:58;100522.53;;;3.66;73.53
78675;BME280;67990;59.826;30.108;2023-03-21T04:43:28;100512.03;;;3.67;73.56
78675;BME280;67990;59.826;30.108;2023-03-21T04:45:58;100507.88;;;3.65;73.23
78675;BME280;67990;59.826;30.108;2023-03-21T04:48:25;100516.78;;;3.61;73.47
78675;BME280;67990;59.826;30.108;2023-03-21T04:50:52;100519.47;;;3.59;73.67
78675;BME280;67990;59.826;30.108;2023-03-21T04:53:19;100525.88;;;3.68;73.21
78675;BME280;67990;59.826;30.108;2023-03-21T04:55:47;100528.09;;;3.60;73.37
78675;BME280;67990;59.826;30.108;2023-03-21T04:58:14;100529.22;;;3.56;73.89
78675;BME280;67990;59.826;30.108;2023-03-21T05:00:44;100527.75;;;3.66;73.42
78675;BME280;67990;59.826;30.108;2023-03-21T05:03:13;100527.63;;;3.67;73.54
78675;BME280;67990;59.826;30.108;2023-03-21T05:05:45;100532.44;;;3.73;73.40
78675;BME280;67990;59.826;30.108;2023-03-21T05:08:12;100530.56;;;3.75;73.35
78675;BME280;67990;59.826;30.108;2023-03-21T05:10:40;100530.88;;;3.71;73.40
78675;BME280;67990;59.826;30.108;2023-03-21T05:13:08;100528.72;;;3.77;73.14
78675;BME280;67990;59.826;30.108;2023-03-21T05:15:35;100532.00;;;3.67;73.20
78675;BME280;67990;59.826;30.108;2023-03-21T05:18:02;100532.19;;;3.64;72.97
78675;BME280;67990;59.826;30.108;2023-03-21T05:20:40;100515.53;;;3.54;73.50
78675;BME280;67990;59.826;30.108;2023-03-21T05:23:08;100535.31;;;3.83;72.81
78675;BME280;67990;59.826;30.108;2023-03-21T05:25:37;100530.94;;;3.83;73.11
78675;BME280;67990;59.826;30.108;2023-03-21T05:28:27;100539.91;;;3.92;72.61
78675;BME280;67990;59.826;30.108;2023-03-21T05:30:58;100542.03;;;3.99;72.54
78675;BME280;67990;59.826;30.108;2023-03-21T05:33:25;100556.22;;;3.94;72.23
78675;BME280;67990;59.826;30.108;2023-03-21T05:35:54;100564.47;;;4.00;72.41
78675;BME280;67990;59.826;30.108;2023-03-21T05:38:22;100575.72;;;4.01;71.94
78675;BME280;67990;59.826;30.108;2023-03-21T05:40:52;100565.13;;;4.04;71.99
78675;BME280;67990;59.826;30.108;2023-03-21T05:43:19;100578.56;;;4.10;71.91
78675;BME280;67990;59.826;30.108;2023-03-21T05:45:47;100573.19;;;4.13;71.83
78675;BME280;67990;59.826;30.108;2023-03-21T05:48:16;100575.88;;;4.12;71.80
78675;BME280;67990;59.826;30.108;2023-03-21T05:51:03;100571.72;;;4.09;71.89
78675;BME280;67990;59.826;30.108;2023-03-21T05:53:30;100557.44;;;4.02;71.63
78675;BME280;67990;59.826;30.108;2023-03-21T05:55:58;100568.00;;;4.13;71.57
78675;BME280;67990;59.826;30.108;2023-03-21T05:58:48;100567.88;;;4.15;71.26
78675;BME280;67990;59.826;30.108;2023-03-21T06:01:16;100575.56;;;4.16;71.31
78675;BME280;67990;59.826;30.108;2023-03-21T06:03:51;100575.63;;;4.29;71.53
78675;BME280;67990;59.826;30.108;2023-03-21T06:06:24;100568.06;;;4.38;71.19
78675;BME280;67990;59.826;30.108;2023-03-21T06:08:54;100576.59;;;4.40;71.16
78675;BME280;67990;59.826;30.108;2023-03-21T06:11:25;100570.28;;;4.18;70.84
78675;BME280;67990;59.826;30.108;2023-03-21T06:14:15;100570.38;;;4.16;71.37
78675;BME280;67990;59.826;30.108;2023-03-21T06:16:44;100584.25;;;4.29;70.87
78675;BME280;67990;59.826;30.108;2023-03-21T06:19:12;100586.03;;;4.29;70.78
78675;BME280;67990;59.826;30.108;2023-03-21T06:21:50;100592.25;;;4.26;71.04
78675;BME280;67990;59.826;30.108;2023-03-21T06:24:17;100591.94;;;4.31;70.65
78675;BME280;67990;59.826;30.108;2023-03-21T06:26:45;100595.09;;;4.36;70.82
78675;BME280;67990;59.826;30.108;2023-03-21T06:29:13;100599.97;;;4.28;70.62
78675;BME280;67990;59.826;30.108;2023-03-21T06:31:46;100604.31;;;4.27;70.84
78675;BME280;67990;59.826;30.108;2023-03-21T06:34:14;100597.25;;;4.29;70.28
78675;BME280;67990;59.826;30.108;2023-03-21T06:36:41;100604.81;;;4.46;70.26
78675;BME280;67990;59.826;30.108;2023-03-21T06:39:11;100617.22;;;4.55;70.48
78675;BME280;67990;59.826;30.108;2023-03-21T06:41:41;100621.78;;;4.52;70.11
78675;BME280;67990;59.826;30.108;2023-03-21T06:44:08;100611.38;;;4.52;70.25
78675;BME280;67990;59.826;30.108;2023-03-21T06:46:44;100618.28;;;4.53;69.77
78675;BME280;67990;59.826;30.108;2023-03-21T06:49:15;100609.03;;;4.35;70.04
78675;BME280;67990;59.826;30.108;2023-03-21T06:51:42;100632.75;;;4.57;69.73
78675;BME280;67990;59.826;30.108;2023-03-21T06:54:17;100631.91;;;4.56;69.76
78675;BME280;67990;59.826;30.108;2023-03-21T06:57:04;100643.44;;;4.52;69.89
78675;BME280;67990;59.826;30.108;2023-03-21T06:59:34;100645.53;;;4.60;69.73
78675;BME280;67990;59.826;30.108;2023-03-21T07:02:05;100641.03;;;4.49;69.28
78675;BME280;67990;59.826;30.108;2023-03-21T07:04:38;100649.31;;;4.68;69.23
78675;BME280;67990;59.826;30.108;2023-03-21T07:07:10;100654.81;;;4.64;68.76
78675;BME280;67990;59.826;30.108;2023-03-21T07:09:39;100647.16;;;4.48;69.79
78675;BME280;67990;59.826;30.108;2023-03-21T07:12:06;100643.72;;;4.48;69.89
78675;BME280;67990;59.826;30.108;2023-03-21T07:14:55;100645.41;;;4.75;69.45
78675;BME280;67990;59.826;30.108;2023-03-21T07:17:22;100647.69;;;4.80;69.14
78675;BME280;67990;59.826;30.108;2023-03-21T07:19:49;100643.84;;;4.85;69.43
78675;BME280;67990;59.826;30.108;2023-03-21T07:22:18;100648.25;;;4.97;69.12
78675;BME280;67990;59.826;30.108;2023-03-21T07:24:46;100651.38;;;5.02;69.23
78675;BME280;67990;59.826;30.108;2023-03-21T07:27:14;100641.50;;;5.07;68.99
78675;BME280;67990;59.826;30.108;2023-03-21T07:29:41;100648.81;;;5.15;69.06
78675;BME280;67990;59.826;30.108;2023-03-21T07:32:09;100657.66;;;5.25;68.40
78675;BME280;67990;59.826;30.108;2023-03-21T07:34:36;100659.94;;;5.17;68.41
78675;BME280;67990;59.826;30.108;2023-03-21T07:37:03;100658.19;;;5.17;68.34
78675;BME280;67990;59.826;30.108;2023-03-21T07:39:32;100666.06;;;5.03;68.46
78675;BME280;67990;59.826;30.108;2023-03-21T07:42:02;100656.19;;;5.08;67.88
78675;BME280;67990;59.826;30.108;2023-03-21T07:44:37;100646.31;;;5.13;67.44
78675;BME280;67990;59.826;30.108;2023-03-21T07:47:06;100657.25;;;5.18;67.86
78675;BME280;67990;59.826;30.108;2023-03-21T07:49:33;100662.34;;;5.20;67.82
78675;BME280;67990;59.826;30.108;2023-03-21T07:52:00;100668.69;;;5.16;68.08
78675;BME280;67990;59.826;30.108;2023-03-21T07:54:27;100672.16;;;5.29;67.94
78675;BME280;67990;59.826;30.108;2023-03-21T07:56:55;100677.66;;;5.24;67.82
78675;BME280;67990;59.826;30.108;2023-03-21T07:59:24;100667.38;;;5.35;67.56
78675;BME280;67990;59.826;30.108;2023-03-21T08:01:52;100672.56;;;5.35;67.28
78675;BME280;67990;59.826;30.108;2023-03-21T08:04:19;100669.56;;;5.54;67.30
78675;BME280;67990;59.826;30.108;2023-03-21T08:06:47;100668.63;;;5.67;66.69
78675;BME280;67990;59.826;30.108;2023-03-21T08:09:16;100680.81;;;5.79;66.89
78675;BME280;67990;59.826;30.108;2023-03-21T08:11:43;100681.75;;;5.78;66.10
78675;BME280;67990;59.826;30.108;2023-03-21T08:14:10;100663.53;;;5.66;65.83
78675;BME280;67990;59.826;30.108;2023-03-21T08:16:38;100681.16;;;5.88;66.17
78675;BME280;67990;59.826;30.108;2023-03-21T08:19:05;100688.84;;;6.02;65.53
78675;BME280;67990;59.826;30.108;2023-03-21T08:21:33;100689.06;;;6.11;65.02
78675;BME280;67990;59.826;30.108;2023-03-21T08:24:00;100690.91;;;6.22;65.01
78675;BME280;67990;59.826;30.108;2023-03-21T08:26:27;100680.84;;;6.41;65.14
78675;BME280;67990;59.826;30.108;2023-03-21T08:28:56;100689.84;;;6.37;64.72
78675;BME280;67990;59.826;30.108;2023-03-21T08:31:23;100693.28;;;6.61;64.49
78675;BME280;67990;59.826;30.108;2023-03-21T08:33:52;100688.72;;;6.52;63.11
78675;BME280;67990;59.826;30.108;2023-03-21T08:36:20;100693.91;;;6.64;63.11
78675;BME280;67990;59.826;30.108;2023-03-21T08:38:48;100697.69;;;6.60;63.47
78675;BME280;67990;59.826;30.108;2023-03-21T08:41:19;100701.47;;;6.56;63.29
78675;BME280;67990;59.826;30.108;2023-03-21T08:43:47;100708.72;;;7.11;62.94
78675;BME280;67990;59.826;30.108;2023-03-21T08:46:14;100718.25;;;7.23;62.19
78675;BME280;67990;59.826;30.108;2023-03-21T08:48:41;100723.31;;;7.48;59.98
78675;BME280;67990;59.826;30.108;2023-03-21T08:51:10;100711.00;;;7.50;61.22
78675;BME280;67990;59.826;30.108;2023-03-21T08:53:37;100725.97;;;7.59;60.85
78675;BME280;67990;59.826;30.108;2023-03-21T08:56:07;100725.75;;;7.62;59.72
78675;BME280;67990;59.826;30.108;2023-03-21T08:58:34;100732.81;;;7.38;60.13
78675;BME280;67990;59.826;30.108;2023-03-21T09:01:01;100737.09;;;7.39;61.20
78675;BME280;67990;59.826;30.108;2023-03-21T09:03:28;100729.19;;;7.17;60.56
78675;BME280;67990;59.826;30.108;2023-03-21T09:05:56;100730.72;;;7.19;61.41
78675;BME280;67990;59.826;30.108;2023-03-21T09:08:24;100733.38;;;7.65;60.04
78675;BME280;67990;59.826;30.108;2023-03-21T09:10:52;100731.06;;;8.28;59.57
78675;BME280;67990;59.826;30.108;2023-03-21T09:13:20;100734.09;;;8.77;57.08
78675;BME280;67990;59.826;30.108;2023-03-21T09:15:47;100734.63;;;8.60;56.92
78675;BME280;67990;59.826;30.108;2023-03-21T09:18:15;100739.72;;;8.61;56.44
78675;BME280;67990;59.826;30.108;2023-03-21T09:20:47;100738.72;;;8.73;57.19
78675;BME280;67990;59.826;30.108;2023-03-21T09:23:15;100740.03;;;8.90;56.69
78675;BME280;67990;59.826;30.108;2023-03-21T09:25:45;100741.63;;;8.70;56.07
78675;BME280;67990;59.826;30.108;2023-03-21T09:28:12;100751.88;;;9.05;55.93
78675;BME280;67990;59.826;30.108;2023-03-21T09:30:39;100752.13;;;9.02;55.36
78675;BME280;67990;59.826;30.108;2023-03-21T09:33:07;100739.31;;;9.19;54.87
78675;BME280;67990;59.826;30.108;2023-03-21T09:35:37;100749.59;;;9.43;54.53
78675;BME280;67990;59.826;30.108;2023-03-21T09:38:05;100751.25;;;9.85;52.95
78675;BME280;67990;59.826;30.108;2023-03-21T09:40:52;100757.69;;;10.01;52.80
78675;BME280;67990;59.826;30.108;2023-03-21T09:43:35;100759.56;;;10.40;51.82
78675;BME280;67990;59.826;30.108;2023-03-21T09:46:09;100762.81;;;11.50;49.66
78675;BME280;67990;59.826;30.108;2023-03-21T09:48:44;100762.13;;;11.29;49.98
78675;BME280;67990;59.826;30.108;2023-03-21T09:51:15;100760.84;;;10.46;49.37
78675;BME280;67990;59.826;30.108;2023-03-21T09:53:46;100762.53;;;10.66;49.22
78675;BME280;67990;59.826;30.108;2023-03-21T09:56:16;100768.44;;;10.39;50.17
78675;BME280;67990;59.826;30.108;2023-03-21T09:58:46;100765.50;;;10.72;49.63
78675;BME280;67990;59.826;30.108;2023-03-21T10:01:19;100777.47;;;10.56;49.73
78675;BME280;67990;59.826;30.108;2023-03-21T10:03:53;100774.41;;;10.21;49.30
78675;BME280;67990;59.826;30.108;2023-03-21T10:06:22;100770.84;;;9.81;49.88
78675;BME280;67990;59.826;30.108;2023-03-21T10:08:55;100778.44;;;9.63;50.29
78675;BME280;67990;59.826;30.108;2023-03-21T10:11:27;100783.81;;;9.41;50.84
78675;BME280;67990;59.826;30.108;2023-03-21T10:13:59;100780.28;;;9.72;50.98
78675;BME280;67990;59.826;30.108;2023-03-21T10:16:30;100790.38;;;10.08;50.24
78675;BME280;67990;59.826;30.108;2023-03-21T10:18:59;100790.03;;;10.02;49.56
78675;BME280;67990;59.826;30.108;2023-03-21T10:21:28;100790.97;;;9.80;49.77
78675;BME280;67990;59.826;30.108;2023-03-21T10:23:57;100800.13;;;9.34;49.82
78675;BME280;67990;59.826;30.108;2023-03-21T10:26:28;100794.16;;;10.15;49.82
78675;BME280;67990;59.826;30.108;2023-03-21T10:28:58;100799.34;;;10.06;48.34
78675;BME280;67990;59.826;30.108;2023-03-21T10:31:28;100774.56;;;10.29;48.58
78675;BME280;67990;59.826;30.108;2023-03-21T10:33:58;100802.25;;;10.63;47.92
78675;BME280;67990;59.826;30.108;2023-03-21T10:36:30;100785.03;;;10.89;46.20
78675;BME280;67990;59.826;30.108;2023-03-21T10:39:01;100787.66;;;10.89;46.01
78675;BME280;67990;59.826;30.108;2023-03-21T10:41:31;100792.19;;;10.38;47.42
78675;BME280;67990;59.826;30.108;2023-03-21T10:44:08;100798.38;;;10.07;47.80
78675;BME280;67990;59.826;30.108;2023-03-21T10:46:36;100801.09;;;10.26;48.23
78675;BME280;67990;59.826;30.108;2023-03-21T10:49:06;100796.91;;;10.14;47.59
78675;BME280;67990;59.826;30.108;2023-03-21T10:51:35;100802.00;;;9.95;48.30
78675;BME280;67990;59.826;30.108;2023-03-21T10:54:05;100784.00;;;9.70;47.83
78675;BME280;67990;59.826;30.108;2023-03-21T10:56:37;100804.53;;;10.17;46.59
78675;BME280;67990;59.826;30.108;2023-03-21T10:59:07;100803.41;;;9.99;46.92
78675;BME280;67990;59.826;30.108;2023-03-21T11:01:42;100798.94;;;10.10;47.28
78675;BME280;67990;59.826;30.108;2023-03-21T11:04:14;100813.44;;;10.05;48.43
78675;BME280;67990;59.826;30.108;2023-03-21T11:06:43;100816.66;;;9.77;47.59
78675;BME280;67990;59.826;30.108;2023-03-21T11:09:14;100811.69;;;9.63;49.36
78675;BME280;67990;59.826;30.108;2023-03-21T11:11:48;100819.88;;;10.01;48.67
78675;BME280;67990;59.826;30.108;2023-03-21T11:14:26;100822.41;;;9.91;47.81
78675;BME280;67990;59.826;30.108;2023-03-21T11:16:53;100827.78;;;9.90;48.31
78675;BME280;67990;59.826;30.108;2023-03-21T11:19:29;100826.59;;;9.73;48.26
78675;BME280;67990;59.826;30.108;2023-03-21T11:21:57;100821.16;;;9.23;48.82
78675;BME280;67990;59.826;30.108;2023-03-21T11:24:27;100825.88;;;8.31;51.05
78675;BME280;67990;59.826;30.108;2023-03-21T11:26:57;100819.22;;;8.27;51.68
78675;BME280;67990;59.826;30.108;2023-03-21T11:29:29;100814.53;;;8.20;51.81
78675;BME280;67990;59.826;30.108;2023-03-21T11:31:58;100824.50;;;8.04;51.36
78675;BME280;67990;59.826;30.108;2023-03-21T11:34:32;100810.44;;;7.83;53.11
78675;BME280;67990;59.826;30.108;2023-03-21T11:37:01;100820.22;;;8.03;52.19
78675;BME280;67990;59.826;30.108;2023-03-21T11:39:32;100810.00;;;8.00;50.87
78675;BME280;67990;59.826;30.108;2023-03-21T11:42:01;100816.88;;;8.01;50.50
78675;BME280;67990;59.826;30.108;2023-03-21T11:44:31;100813.16;;;7.81;50.12
78675;BME280;67990;59.826;30.108;2023-03-21T11:46:58;100823.34;;;7.73;51.45
78675;BME280;67990;59.826;30.108;2023-03-21T11:49:26;100819.25;;;7.93;51.69
78675;BME280;67990;59.826;30.108;2023-03-21T11:52:12;100815.06;;;7.90;51.76
78675;BME280;67990;59.826;30.108;2023-03-21T11:55:04;100814.03;;;7.58;51.65
78675;BME280;67990;59.826;30.108;2023-03-21T11:57:41;100813.78;;;7.50;50.13
78675;BME280;67990;59.826;30.108;2023-03-21T12:00:14;100813.66;;;7.28;50.63
78675;BME280;67990;59.826;30.108;2023-03-21T12:03:10;100814.63;;;6.91;51.80
78675;BME280;67990;59.826;30.108;2023-03-21T12:05:50;100809.78;;;7.10;51.85
78675;BME280;67990;59.826;30.108;2023-03-21T12:08:29;100813.72;;;7.16;52.58
78675;BME280;67990;59.826;30.108;2023-03-21T12:11:04;100810.84;;;7.31;52.46
78675;BME280;67990;59.826;30.108;2023-03-21T12:13:49;100812.09;;;7.26;52.90
78675;BME280;67990;59.826;30.108;2023-03-21T12:16:30;100793.63;;;6.93;52.54
78675;BME280;67990;59.826;30.108;2023-03-21T12:19:09;100818.56;;;7.09;53.34
78675;BME280;67990;59.826;30.108;2023-03-21T12:21:44;100818.88;;;7.28;52.70
78675;BME280;67990;59.826;30.108;2023-03-21T12:24:18;100818.22;;;7.61;51.44
78675;BME280;67990;59.826;30.108;2023-03-21T12:26:53;100809.53;;;7.60;51.20
78675;BME280;67990;59.826;30.108;2023-03-21T12:29:34;100806.09;;;7.13;51.89
78675;BME280;67990;59.826;30.108;2023-03-21T12:32:13;100810.53;;;7.00;53.07
78675;BME280;67990;59.826;30.108;2023-03-21T12:35:16;100814.72;;;7.02;52.92
78675;BME280;67990;59.826;30.108;2023-03-21T12:37:52;100817.41;;;7.37;52.15
78675;BME280;67990;59.826;30.108;2023-03-21T12:40:37;100816.09;;;7.19;52.17
78675;BME280;67990;59.826;30.108;2023-03-21T12:43:35;100821.28;;;7.31;51.75
78675;BME280;67990;59.826;30.108;2023-03-21T12:46:11;100817.00;;;7.30;50.94
78675;BME280;67990;59.826;30.108;2023-03-21T12:48:43;100821.84;;;7.24;50.51
78675;BME280;67990;59.826;30.108;2023-03-21T12:51:13;100822.16;;;6.96;51.15
78675;BME280;67990;59.826;30.108;2023-03-21T12:53:48;100819.91;;;6.66;51.91
78675;BME280;67990;59.826;30.108;2023-03-21T12:56:20;100814.91;;;6.76;51.72
78675;BME280;67990;59.826;30.108;2023-03-21T12:58:51;100818.16;;;6.54;52.58
78675;BME280;67990;59.826;30.108;2023-03-21T13:01:22;100815.69;;;6.40;52.69
78675;BME280;67990;59.826;30.108;2023-03-21T13:03:58;100816.94;;;6.47;52.93
78675;BME280;67990;59.826;30.108;2023-03-21T13:06:29;100820.47;;;6.59;52.42
78675;BME280;67990;59.826;30.108;2023-03-21T13:08:59;100818.69;;;6.47;51.77
78675;BME280;67990;59.826;30.108;2023-03-21T13:11:29;100831.53;;;6.37;51.79
78675;BME280;67990;59.826;30.108;2023-03-21T13:14:02;100809.41;;;6.43;52.11
78675;BME280;67990;59.826;30.108;2023-03-21T13:16:32;100820.78;;;6.67;51.89
78675;BME280;67990;59.826;30.108;2023-03-21T13:19:07;100825.06;;;6.55;52.10